Admiral — WCY6529 — position and weather

sailwx.info

Track history (hours):
 
Tides and Currents Weather Stations Pressure Air Temp Water Temp Dewpoint Dewpoint Depression Visibility Wind Speed Wind Dir Waves Ship Positions

Admiral

Owner: Crowley Marine Services, SEATTLE, WA. More information available from US FCC via Universal Licensing System and Coast Guard Vessel Documentation Center.

Last reported at 2016-Apr-26 17:21 UTC. Time now 2016-May-04 21:07 UTC.
Position N 33°44' W 118°16'.
Warning: this ship's position is 8 days out of date.

; draft 5.3 m.

Type: Tug. MMSI: 366755020.

Date/timePositionNaut miles runAvg speedWind from/ knotsBaromVisibWave heightAir tempDewpointWater temp
2016-Apr-26 17:21N 33°44' W 118°16'0 0.4
2016-Apr-26 16:21N 33°44' W 118°16'0 0.0
2016-Apr-26 15:30N 33°44' W 118°16'0 0.0
2016-Apr-26 14:33N 33°44' W 118°16'0 0.0
2016-Apr-26 13:32N 33°44' W 118°16'1 0.1
2016-Apr-26 05:33N 33°44' W 118°17'0 0.0
2016-Apr-26 02:12N 33°44' W 118°17'0 0.0
2016-Apr-26 01:27N 33°44' W 118°17'0 0.0
2016-Apr-26 00:33N 33°44' W 118°17'1 1.0
2016-Apr-25 23:33N 33°45' W 118°16'1 0.7
2016-Apr-25 22:33N 33°45' W 118°17'0 0.2
2016-Apr-25 21:24N 33°44' W 118°17'0 0.0
2016-Apr-25 20:31N 33°44' W 118°17'0 0.0
2016-Apr-25 19:33N 33°44' W 118°17'0 0.0
2016-Apr-25 18:10N 33°44' W 118°17'0 0.1
2016-Apr-25 13:33N 33°45' W 118°16'1 1.1
2016-Apr-25 12:33N 33°44' W 118°16'1 0.5
2016-Apr-25 11:33N 33°43' W 118°16'1 1.3
2016-Apr-25 10:33N 33°44' W 118°17'0 0.0
2016-Apr-25 06:25N 33°44' W 118°17'0 0.0
2016-Apr-25 05:33N 33°44' W 118°17'0 0.0
2016-Apr-25 01:13N 33°44' W 118°17'3 4.6
2016-Apr-25 00:33N 33°45' W 118°13'1 1.0
2016-Apr-24 23:33N 33°46' W 118°13'1 0.9
2016-Apr-24 22:34N 33°45' W 118°13'0 0.0
2016-Apr-24 21:33N 33°45' W 118°13'1 1.4
2016-Apr-24 20:33N 33°46' W 118°13'4 3.8
2016-Apr-24 19:33N 33°43' W 118°15'2 2.1
2016-Apr-24 18:31N 33°44' W 118°17'0 0.0
2016-Apr-24 17:32N 33°44' W 118°17'0 0.0
2016-Apr-24 16:26N 33°44' W 118°17'0 0.0
2016-Apr-24 15:33N 33°44' W 118°17'2 1.6
2016-Apr-24 14:24N 33°43' W 118°15'4 4.6
2016-Apr-24 13:33N 33°46' W 118°13'2 1.9
2016-Apr-24 12:33N 33°45' W 118°13'1 1.1
2016-Apr-24 11:31N 33°44' W 118°12'4 4.3
2016-Apr-24 10:33N 33°45' W 118°17'0 0.4
2016-Apr-24 09:33N 33°46' W 118°17'1 0.2
2016-Apr-24 03:27N 33°44' W 118°17'1 0.7
2016-Apr-24 02:33N 33°45' W 118°16'0 0.1
2016-Apr-24 01:32N 33°45' W 118°16'2 1.5
2016-Apr-24 00:26N 33°46' W 118°15'1 0.8
2016-Apr-23 23:30N 33°46' W 118°16'1 1.5
2016-Apr-23 22:33N 33°44' W 118°17'0 0.0
2016-Apr-23 21:22N 33°44' W 118°17'3 3.1
2016-Apr-23 20:27N 33°44' W 118°13'2 2.4
2016-Apr-23 19:33N 33°46' W 118°13'0 0.2
2016-Apr-23 18:30N 33°46' W 118°13'1 0.4
2016-Apr-23 15:17N 33°45' W 118°13'0 0.0
2016-Apr-23 14:32N 33°45' W 118°13'1 0.6
2016-Apr-23 13:32N 33°45' W 118°13'1 0.6
2016-Apr-23 12:27N 33°46' W 118°13'2 1.6
2016-Apr-23 11:26N 33°45' W 118°13'2 0.6
2016-Apr-23 07:31N 33°46' W 118°15'1 0.2
2016-Apr-23 00:09N 33°46' W 118°16'2 2.3
2016-Apr-22 23:26N 33°46' W 118°14'2 0.2
2016-Apr-22 15:29N 33°45' W 118°16'3 0.6
2016-Apr-22 11:28N 33°43' W 118°15'3 2.8
2016-Apr-22 10:25N 33°45' W 118°13'0 0.1
2016-Apr-22 09:08N 33°45' W 118°13'3 0.5
2016-Apr-22 03:09N 33°44' W 118°17'1 2.0
2016-Apr-22 02:33N 33°43' W 118°16'1 0.8
2016-Apr-22 01:33N 33°44' W 118°15'1 1.4
2016-Apr-22 00:32N 33°44' W 118°17'0 0.0
2016-Apr-21 23:33N 33°44' W 118°17'3 2.8
2016-Apr-21 22:33N 33°44' W 118°13'1 0.9
2016-Apr-21 21:33N 33°45' W 118°13'2 1.7
2016-Apr-21 20:33N 33°43' W 118°13'3 3.1
2016-Apr-21 19:33N 33°44' W 118°17'0 0.0
2016-Apr-21 18:33N 33°44' W 118°17'0 0.0
2016-Apr-21 17:33N 33°44' W 118°17'0 0.0
2016-Apr-21 16:33N 33°44' W 118°17'0 0.0
2016-Apr-21 15:33N 33°44' W 118°17'0 0.0
2016-Apr-21 14:33N 33°44' W 118°17'0 0.0
2016-Apr-21 13:33N 33°44' W 118°17'1 0.7
2016-Apr-21 12:33N 33°45' W 118°16'0 0.1
2016-Apr-21 11:33N 33°45' W 118°16'1 0.8
2016-Apr-21 10:33N 33°44' W 118°17'0 0.0
2016-Apr-21 09:33N 33°44' W 118°17'0 0.0
2016-Apr-21 08:32N 33°44' W 118°17'0 0.0
2016-Apr-21 07:33N 33°44' W 118°17'0 0.0
2016-Apr-21 06:33N 33°44' W 118°17'0 0.0
2016-Apr-21 05:32N 33°44' W 118°17'0 0.0
2016-Apr-21 04:32N 33°44' W 118°17'0 0.0
2016-Apr-21 03:30N 33°44' W 118°17'0 0.0
2016-Apr-21 02:26N 33°44' W 118°17'0 0.0
2016-Apr-21 01:26N 33°44' W 118°17'0 0.0
2016-Apr-21 00:13N 33°44' W 118°17'2 0.7
2016-Apr-20 21:32N 33°46' W 118°15'2 1.2
2016-Apr-20 20:07N 33°44' W 118°17'0 0.0
2016-Apr-20 19:20N 33°44' W 118°17'0 0.0
2016-Apr-20 17:26N 33°44' W 118°17'1 1.1
2016-Apr-20 16:34N 33°45' W 118°17'1 0.6
2016-Apr-20 15:33N 33°45' W 118°16'1 0.5
2016-Apr-20 14:33N 33°44' W 118°17'0 0.0
2016-Apr-20 13:33N 33°44' W 118°17'0 0.0
2016-Apr-20 12:33N 33°44' W 118°17'0 0.0
2016-Apr-20 11:33N 33°44' W 118°17'1 1.2
2016-Apr-20 10:34N 33°44' W 118°15'1 0.8
2016-Apr-20 09:33N 33°43' W 118°16'1 1.0
2016-Apr-20 08:12N 33°44' W 118°17'0 0.0
2016-Apr-20 07:29N 33°44' W 118°17'0 0.0
2016-Apr-20 06:18N 33°44' W 118°17'0 0.0
2016-Apr-20 05:33N 33°44' W 118°17'0 0.0
2016-Apr-20 04:33N 33°44' W 118°17'0 0.0
2016-Apr-20 03:30N 33°44' W 118°17'0 0.0
2016-Apr-19 20:21N 33°44' W 118°17'0 0.0
2016-Apr-19 18:17N 33°44' W 118°17'0 0.0
2016-Apr-19 17:32N 33°44' W 118°17'0 0.0
2016-Apr-19 16:32N 33°44' W 118°17'0 0.0
2016-Apr-19 15:32N 33°44' W 118°17'1 0.5
2016-Apr-19 14:34N 33°45' W 118°16'0 0.3
2016-Apr-19 13:34N 33°45' W 118°16'3 2.6
2016-Apr-19 12:33N 33°43' W 118°15'1 1.2
2016-Apr-19 11:33N 33°44' W 118°15'1 0.9
2016-Apr-19 10:33N 33°43' W 118°16'1 0.9
2016-Apr-19 09:33N 33°44' W 118°17'0 0.4
2016-Apr-19 08:33N 33°44' W 118°17'0 0.0
2016-Apr-19 07:33N 33°44' W 118°17'0 0.0
2016-Apr-19 06:33N 33°44' W 118°17'0 0.0
2016-Apr-19 05:20N 33°44' W 118°17'1 0.9
2016-Apr-19 04:33N 33°44' W 118°16'1 0.6
2016-Apr-19 03:32N 33°43' W 118°16'1 1.3
2016-Apr-19 02:32N 33°44' W 118°17'0 0.0
2016-Apr-19 01:31N 33°44' W 118°17'0 0.3
2016-Apr-19 00:33N 33°44' W 118°17'0 0.1
2016-Apr-18 22:27N 33°44' W 118°17'1 1.1
2016-Apr-18 21:33N 33°45' W 118°16'0 0.1
2016-Apr-18 20:33N 33°45' W 118°16'1 0.9
2016-Apr-18 19:33N 33°44' W 118°17'0 0.0
2016-Apr-18 18:29N 33°44' W 118°17'0 0.0
2016-Apr-18 14:18N 33°44' W 118°17'0 0.0
2016-Apr-18 13:33N 33°44' W 118°17'1 0.8
2016-Apr-18 12:33N 33°45' W 118°16'3 2.8
2016-Apr-18 11:33N 33°43' W 118°15'2 2.0
2016-Apr-18 10:26N 33°44' W 118°17'0 0.0
2016-Apr-18 09:24N 33°44' W 118°17'0 0.0
2016-Apr-18 08:33N 33°44' W 118°17'0 0.0
2016-Apr-18 07:33N 33°44' W 118°17'0 0.0
2016-Apr-18 03:33N 33°44' W 118°17'0 0.0
2016-Apr-18 02:33N 33°44' W 118°17'0 0.0
2016-Apr-18 01:33N 33°44' W 118°17'0 0.0
2016-Apr-18 00:33N 33°44' W 118°17'0 0.0
2016-Apr-17 23:32N 33°44' W 118°17'0 0.0
2016-Apr-17 22:22N 33°44' W 118°17'0 0.0
2016-Apr-17 19:04N 33°44' W 118°17'3 5.9
2016-Apr-17 18:32N 33°43' W 118°13'1 0.7
2016-Apr-17 17:33N 33°43' W 118°14'3 3.0
2016-Apr-17 16:34N 33°45' W 118°17'0 0.4
2016-Apr-17 15:33N 33°45' W 118°16'1 0.7
2016-Apr-17 14:33N 33°44' W 118°17'0 0.1
2016-Apr-17 13:33N 33°44' W 118°17'1 0.7
2016-Apr-17 12:33N 33°45' W 118°16'1 0.6
2016-Apr-17 11:33N 33°44' W 118°17'0 0.0
2016-Apr-17 10:33N 33°44' W 118°17'0 0.0
2016-Apr-17 09:33N 33°44' W 118°17'0 0.0
2016-Apr-17 08:33N 33°44' W 118°17'0 0.0
2016-Apr-17 07:33N 33°44' W 118°17'0 0.0
2016-Apr-17 06:31N 33°44' W 118°17'0 0.0
2016-Apr-17 05:26N 33°44' W 118°17'0 0.0
2016-Apr-17 04:33N 33°44' W 118°17'0 0.0
2016-Apr-17 03:33N 33°44' W 118°17'0 0.0
2016-Apr-17 02:33N 33°44' W 118°17'0 0.0
2016-Apr-17 01:33N 33°44' W 118°17'0 0.0
2016-Apr-17 00:34N 33°44' W 118°17'2 2.4
2016-Apr-16 23:33N 33°46' W 118°14'  
Track history (hours):
 
Tides and Currents Weather Stations Pressure Air Temp Water Temp Dewpoint Dewpoint Depression Visibility Wind Speed Wind Dir Waves Ship Positions

Admiral

Owner: Crowley Marine Services, SEATTLE, WA. More information available from US FCC via Universal Licensing System and Coast Guard Vessel Documentation Center.

Last reported at 2016-Apr-26 17:21 UTC. Time now 2016-May-04 21:07 UTC.
Position N 33°44' W 118°16'.
Warning: this ship's position is 8 days out of date.

; draft 5.3 m.

Type: Tug. MMSI: 366755020.

Date/timePositionNaut miles runAvg speedWind from/ knotsBaromVisibWave heightAir tempDewpointWater temp
2016-Apr-26 17:21N 33°44' W 118°16'0 0.4
2016-Apr-26 16:21N 33°44' W 118°16'0 0.0
2016-Apr-26 15:30N 33°44' W 118°16'0 0.0
2016-Apr-26 14:33N 33°44' W 118°16'0 0.0
2016-Apr-26 13:32N 33°44' W 118°16'1 0.1
2016-Apr-26 05:33N 33°44' W 118°17'0 0.0
2016-Apr-26 02:12N 33°44' W 118°17'0 0.0
2016-Apr-26 01:27N 33°44' W 118°17'0 0.0
2016-Apr-26 00:33N 33°44' W 118°17'1 1.0
2016-Apr-25 23:33N 33°45' W 118°16'1 0.7
2016-Apr-25 22:33N 33°45' W 118°17'0 0.2
2016-Apr-25 21:24N 33°44' W 118°17'0 0.0
2016-Apr-25 20:31N 33°44' W 118°17'0 0.0
2016-Apr-25 19:33N 33°44' W 118°17'0 0.0
2016-Apr-25 18:10N 33°44' W 118°17'0 0.1
2016-Apr-25 13:33N 33°45' W 118°16'1 1.1
2016-Apr-25 12:33N 33°44' W 118°16'1 0.5
2016-Apr-25 11:33N 33°43' W 118°16'1 1.3
2016-Apr-25 10:33N 33°44' W 118°17'0 0.0
2016-Apr-25 06:25N 33°44' W 118°17'0 0.0
2016-Apr-25 05:33N 33°44' W 118°17'0 0.0
2016-Apr-25 01:13N 33°44' W 118°17'3 4.6
2016-Apr-25 00:33N 33°45' W 118°13'1 1.0
2016-Apr-24 23:33N 33°46' W 118°13'1 0.9
2016-Apr-24 22:34N 33°45' W 118°13'0 0.0
2016-Apr-24 21:33N 33°45' W 118°13'1 1.4
2016-Apr-24 20:33N 33°46' W 118°13'4 3.8
2016-Apr-24 19:33N 33°43' W 118°15'2 2.1
2016-Apr-24 18:31N 33°44' W 118°17'0 0.0
2016-Apr-24 17:32N 33°44' W 118°17'0 0.0
2016-Apr-24 16:26N 33°44' W 118°17'0 0.0
2016-Apr-24 15:33N 33°44' W 118°17'2 1.6
2016-Apr-24 14:24N 33°43' W 118°15'4 4.6
2016-Apr-24 13:33N 33°46' W 118°13'2 1.9
2016-Apr-24 12:33N 33°45' W 118°13'1 1.1
2016-Apr-24 11:31N 33°44' W 118°12'4 4.3
2016-Apr-24 10:33N 33°45' W 118°17'0 0.4
2016-Apr-24 09:33N 33°46' W 118°17'1 0.2
2016-Apr-24 03:27N 33°44' W 118°17'1 0.7
2016-Apr-24 02:33N 33°45' W 118°16'0 0.1
2016-Apr-24 01:32N 33°45' W 118°16'2 1.5
2016-Apr-24 00:26N 33°46' W 118°15'1 0.8
2016-Apr-23 23:30N 33°46' W 118°16'1 1.5
2016-Apr-23 22:33N 33°44' W 118°17'0 0.0
2016-Apr-23 21:22N 33°44' W 118°17'3 3.1
2016-Apr-23 20:27N 33°44' W 118°13'2 2.4
2016-Apr-23 19:33N 33°46' W 118°13'0 0.2
2016-Apr-23 18:30N 33°46' W 118°13'1 0.4
2016-Apr-23 15:17N 33°45' W 118°13'0 0.0
2016-Apr-23 14:32N 33°45' W 118°13'1 0.6
2016-Apr-23 13:32N 33°45' W 118°13'1 0.6
2016-Apr-23 12:27N 33°46' W 118°13'2 1.6
2016-Apr-23 11:26N 33°45' W 118°13'2 0.6
2016-Apr-23 07:31N 33°46' W 118°15'1 0.2
2016-Apr-23 00:09N 33°46' W 118°16'2 2.3
2016-Apr-22 23:26N 33°46' W 118°14'2 0.2
2016-Apr-22 15:29N 33°45' W 118°16'3 0.6
2016-Apr-22 11:28N 33°43' W 118°15'3 2.8
2016-Apr-22 10:25N 33°45' W 118°13'0 0.1
2016-Apr-22 09:08N 33°45' W 118°13'3 0.5
2016-Apr-22 03:09N 33°44' W 118°17'1 2.0
2016-Apr-22 02:33N 33°43' W 118°16'1 0.8
2016-Apr-22 01:33N 33°44' W 118°15'1 1.4
2016-Apr-22 00:32N 33°44' W 118°17'0 0.0
2016-Apr-21 23:33N 33°44' W 118°17'3 2.8
2016-Apr-21 22:33N 33°44' W 118°13'1 0.9
2016-Apr-21 21:33N 33°45' W 118°13'2 1.7
2016-Apr-21 20:33N 33°43' W 118°13'3 3.1
2016-Apr-21 19:33N 33°44' W 118°17'0 0.0
2016-Apr-21 18:33N 33°44' W 118°17'0 0.0
2016-Apr-21 17:33N 33°44' W 118°17'0 0.0
2016-Apr-21 16:33N 33°44' W 118°17'0 0.0
2016-Apr-21 15:33N 33°44' W 118°17'0 0.0
2016-Apr-21 14:33N 33°44' W 118°17'0 0.0
2016-Apr-21 13:33N 33°44' W 118°17'1 0.7
2016-Apr-21 12:33N 33°45' W 118°16'0 0.1
2016-Apr-21 11:33N 33°45' W 118°16'1 0.8
2016-Apr-21 10:33N 33°44' W 118°17'0 0.0
2016-Apr-21 09:33N 33°44' W 118°17'0 0.0
2016-Apr-21 08:32N 33°44' W 118°17'0 0.0
2016-Apr-21 07:33N 33°44' W 118°17'0 0.0
2016-Apr-21 06:33N 33°44' W 118°17'0 0.0
2016-Apr-21 05:32N 33°44' W 118°17'0 0.0
2016-Apr-21 04:32N 33°44' W 118°17'0 0.0
2016-Apr-21 03:30N 33°44' W 118°17'0 0.0
2016-Apr-21 02:26N 33°44' W 118°17'0 0.0
2016-Apr-21 01:26N 33°44' W 118°17'0 0.0
2016-Apr-21 00:13N 33°44' W 118°17'2 0.7
2016-Apr-20 21:32N 33°46' W 118°15'2 1.2
2016-Apr-20 20:07N 33°44' W 118°17'0 0.0
2016-Apr-20 19:20N 33°44' W 118°17'0 0.0
2016-Apr-20 17:26N 33°44' W 118°17'1 1.1
2016-Apr-20 16:34N 33°45' W 118°17'1 0.6
2016-Apr-20 15:33N 33°45' W 118°16'1 0.5
2016-Apr-20 14:33N 33°44' W 118°17'0 0.0
2016-Apr-20 13:33N 33°44' W 118°17'0 0.0
2016-Apr-20 12:33N 33°44' W 118°17'0 0.0
2016-Apr-20 11:33N 33°44' W 118°17'1 1.2
2016-Apr-20 10:34N 33°44' W 118°15'1 0.8
2016-Apr-20 09:33N 33°43' W 118°16'1 1.0
2016-Apr-20 08:12N 33°44' W 118°17'0 0.0
2016-Apr-20 07:29N 33°44' W 118°17'0 0.0
2016-Apr-20 06:18N 33°44' W 118°17'0 0.0
2016-Apr-20 05:33N 33°44' W 118°17'0 0.0
2016-Apr-20 04:33N 33°44' W 118°17'0 0.0
2016-Apr-20 03:30N 33°44' W 118°17'0 0.0
2016-Apr-19 20:21N 33°44' W 118°17'0 0.0
2016-Apr-19 18:17N 33°44' W 118°17'0 0.0
2016-Apr-19 17:32N 33°44' W 118°17'0 0.0
2016-Apr-19 16:32N 33°44' W 118°17'0 0.0
2016-Apr-19 15:32N 33°44' W 118°17'1 0.5
2016-Apr-19 14:34N 33°45' W 118°16'0 0.3
2016-Apr-19 13:34N 33°45' W 118°16'3 2.6
2016-Apr-19 12:33N 33°43' W 118°15'1 1.2
2016-Apr-19 11:33N 33°44' W 118°15'1 0.9
2016-Apr-19 10:33N 33°43' W 118°16'1 0.9
2016-Apr-19 09:33N 33°44' W 118°17'0 0.4
2016-Apr-19 08:33N 33°44' W 118°17'0 0.0
2016-Apr-19 07:33N 33°44' W 118°17'0 0.0
2016-Apr-19 06:33N 33°44' W 118°17'0 0.0
2016-Apr-19 05:20N 33°44' W 118°17'1 0.9
2016-Apr-19 04:33N 33°44' W 118°16'1 0.6
2016-Apr-19 03:32N 33°43' W 118°16'1 1.3
2016-Apr-19 02:32N 33°44' W 118°17'0 0.0
2016-Apr-19 01:31N 33°44' W 118°17'0 0.3
2016-Apr-19 00:33N 33°44' W 118°17'0 0.1
2016-Apr-18 22:27N 33°44' W 118°17'1 1.1
2016-Apr-18 21:33N 33°45' W 118°16'0 0.1
2016-Apr-18 20:33N 33°45' W 118°16'1 0.9
2016-Apr-18 19:33N 33°44' W 118°17'0 0.0
2016-Apr-18 18:29N 33°44' W 118°17'0 0.0
2016-Apr-18 14:18N 33°44' W 118°17'0 0.0
2016-Apr-18 13:33N 33°44' W 118°17'1 0.8
2016-Apr-18 12:33N 33°45' W 118°16'3 2.8
2016-Apr-18 11:33N 33°43' W 118°15'2 2.0
2016-Apr-18 10:26N 33°44' W 118°17'0 0.0
2016-Apr-18 09:24N 33°44' W 118°17'0 0.0
2016-Apr-18 08:33N 33°44' W 118°17'0 0.0
2016-Apr-18 07:33N 33°44' W 118°17'0 0.0
2016-Apr-18 03:33N 33°44' W 118°17'0 0.0
2016-Apr-18 02:33N 33°44' W 118°17'0 0.0
2016-Apr-18 01:33N 33°44' W 118°17'0 0.0
2016-Apr-18 00:33N 33°44' W 118°17'0 0.0
2016-Apr-17 23:32N 33°44' W 118°17'0 0.0
2016-Apr-17 22:22N 33°44' W 118°17'0 0.0
2016-Apr-17 19:04N 33°44' W 118°17'3 5.9
2016-Apr-17 18:32N 33°43' W 118°13'1 0.7
2016-Apr-17 17:33N 33°43' W 118°14'3 3.0
2016-Apr-17 16:34N 33°45' W 118°17'0 0.4
2016-Apr-17 15:33N 33°45' W 118°16'1 0.7
2016-Apr-17 14:33N 33°44' W 118°17'0 0.1
2016-Apr-17 13:33N 33°44' W 118°17'1 0.7
2016-Apr-17 12:33N 33°45' W 118°16'1 0.6
2016-Apr-17 11:33N 33°44' W 118°17'0 0.0
2016-Apr-17 10:33N 33°44' W 118°17'0 0.0
2016-Apr-17 09:33N 33°44' W 118°17'0 0.0
2016-Apr-17 08:33N 33°44' W 118°17'0 0.0
2016-Apr-17 07:33N 33°44' W 118°17'0 0.0
2016-Apr-17 06:31N 33°44' W 118°17'0 0.0
2016-Apr-17 05:26N 33°44' W 118°17'0 0.0
2016-Apr-17 04:33N 33°44' W 118°17'0 0.0
2016-Apr-17 03:33N 33°44' W 118°17'0 0.0
2016-Apr-17 02:33N 33°44' W 118°17'0 0.0
2016-Apr-17 01:33N 33°44' W 118°17'0 0.0
2016-Apr-17 00:34N 33°44' W 118°17'2 2.4
2016-Apr-16 23:33N 33°46' W 118°14'  

Dump ship's entire track history